createdAt,value
2022-12-03T00:00:12.147Z,3.95
2022-12-03T00:02:39.647Z,3.61
2022-12-03T00:05:06.306Z,3.91
2022-12-03T00:07:32.876Z,3.93
2022-12-03T00:09:59.446Z,3.82
2022-12-03T00:12:25.979Z,3.72
2022-12-03T00:14:52.544Z,3.78
2022-12-03T00:17:19.777Z,3.70
2022-12-03T00:19:46.273Z,3.67
2022-12-03T00:22:13.492Z,3.67
2022-12-03T00:24:40.024Z,3.66
2022-12-03T00:27:06.639Z,3.64
2022-12-03T00:29:33.259Z,3.35
2022-12-03T00:31:59.931Z,3.43
2022-12-03T00:34:26.466Z,3.43
2022-12-03T00:36:52.990Z,3.31
2022-12-03T00:39:19.508Z,3.15
2022-12-03T00:41:46.004Z,3.10
2022-12-03T00:44:12.508Z,3.08
2022-12-03T00:46:39.116Z,3.14
2022-12-03T00:49:06.028Z,3.14
2022-12-03T00:51:35.803Z,3.08
2022-12-03T00:54:02.450Z,2.94
2022-12-03T00:56:29.033Z,2.61
2022-12-03T00:58:55.578Z,2.86
2022-12-03T01:01:22.127Z,2.91
2022-12-03T01:03:48.758Z,2.79
2022-12-03T01:06:15.279Z,2.86
2022-12-03T01:08:41.811Z,2.87
2022-12-03T01:11:28.559Z,2.85
2022-12-03T01:13:55.091Z,2.78
2022-12-03T01:16:21.747Z,2.72
2022-12-03T01:18:48.385Z,2.65
2022-12-03T01:21:14.935Z,2.81
2022-12-03T01:23:41.445Z,2.83
2022-12-03T01:26:08.193Z,2.85
2022-12-03T01:28:35.005Z,2.89
2022-12-03T01:31:20.143Z,2.93
2022-12-03T01:33:46.707Z,2.95
2022-12-03T01:36:13.343Z,2.94
2022-12-03T01:38:39.910Z,2.94
2022-12-03T01:41:11.451Z,2.86
2022-12-03T01:43:38.606Z,2.86
2022-12-03T01:46:05.365Z,2.76
2022-12-03T01:48:34.857Z,2.86
2022-12-03T01:51:01.682Z,2.93
2022-12-03T01:53:28.215Z,2.95
2022-12-03T01:55:54.815Z,2.97
2022-12-03T01:58:26.847Z,3.01
2022-12-03T02:00:53.557Z,2.96
2022-12-03T02:03:25.571Z,2.89
2022-12-03T02:05:52.482Z,2.84
2022-12-03T02:08:36.870Z,2.83
2022-12-03T02:11:14.627Z,2.81
2022-12-03T02:13:42.444Z,2.77
2022-12-03T02:16:09.513Z,2.85
2022-12-03T02:18:36.294Z,2.63
2022-12-03T02:21:20.292Z,2.71
2022-12-03T02:24:09.705Z,2.75
2022-12-03T02:26:36.225Z,2.75
2022-12-03T02:29:03.048Z,2.63
2022-12-03T02:31:29.820Z,2.82
2022-12-03T02:33:56.367Z,2.82
2022-12-03T02:36:23.108Z,2.80
2022-12-03T02:38:50.703Z,2.85
2022-12-03T02:41:39.137Z,2.86
2022-12-03T02:44:07.265Z,2.81
2022-12-03T02:46:34.252Z,2.70
2022-12-03T02:49:01.896Z,2.81
2022-12-03T02:51:28.677Z,2.83
2022-12-03T02:53:56.747Z,2.84
2022-12-03T02:56:29.248Z,2.84
2022-12-03T02:59:00.220Z,2.80
2022-12-03T03:01:26.956Z,2.76
2022-12-03T03:03:54.076Z,2.67
2022-12-03T03:06:22.581Z,2.65
2022-12-03T03:08:49.318Z,2.71
2022-12-03T03:11:15.841Z,2.69
2022-12-03T03:13:42.767Z,2.62
2022-12-03T03:16:09.880Z,2.72
2022-12-03T03:18:36.881Z,2.63
2022-12-03T03:21:04.567Z,2.69
2022-12-03T03:23:31.156Z,2.65
2022-12-03T03:26:07.405Z,2.72
2022-12-03T03:28:43.387Z,2.68
2022-12-03T03:31:12.793Z,2.70
2022-12-03T03:33:41.459Z,2.77
2022-12-03T03:36:08.636Z,2.73
2022-12-03T03:38:36.735Z,2.60
2022-12-03T03:41:06.307Z,2.60
2022-12-03T03:43:34.884Z,2.65
2022-12-03T03:46:04.182Z,2.64
2022-12-03T03:48:31.805Z,2.64
2022-12-03T03:50:58.384Z,2.52
2022-12-03T03:53:25.020Z,2.30
2022-12-03T03:55:51.945Z,2.59
2022-12-03T03:58:18.674Z,2.53
2022-12-03T04:00:46.392Z,2.53
2022-12-03T04:03:13.440Z,2.49
2022-12-03T04:05:40.172Z,2.60
2022-12-03T04:08:06.788Z,2.51
2022-12-03T04:10:51.834Z,2.68
2022-12-03T04:13:18.452Z,2.54
2022-12-03T04:15:45.106Z,2.67
2022-12-03T04:18:30.095Z,2.69
2022-12-03T04:21:16.539Z,2.74
2022-12-03T04:23:43.168Z,2.76
2022-12-03T04:26:28.451Z,2.58
2022-12-03T04:28:55.343Z,2.40
2022-12-03T04:31:40.491Z,2.69
2022-12-03T04:34:25.562Z,2.61
2022-12-03T04:36:52.048Z,2.45
2022-12-03T04:39:18.742Z,2.44
2022-12-03T04:41:45.295Z,2.45
2022-12-03T04:44:30.244Z,2.48
2022-12-03T04:46:56.797Z,2.45
2022-12-03T04:49:23.400Z,2.40
2022-12-03T04:51:49.929Z,2.45
2022-12-03T04:54:16.581Z,2.36
2022-12-03T04:56:43.245Z,2.38
2022-12-03T04:59:15.754Z,2.34
2022-12-03T05:01:43.288Z,2.11
2022-12-03T05:04:10.710Z,2.33
2022-12-03T05:06:37.248Z,2.28
2022-12-03T05:09:03.907Z,2.26
2022-12-03T05:11:31.242Z,2.17
2022-12-03T05:13:57.821Z,2.14
2022-12-03T05:16:24.543Z,2.14
2022-12-03T05:18:51.102Z,2.10
2022-12-03T05:21:17.631Z,2.16
2022-12-03T05:23:44.167Z,2.18
2022-12-03T05:26:11.473Z,2.16
2022-12-03T05:28:38.005Z,2.04
2022-12-03T05:31:05.180Z,2.06
2022-12-03T05:33:31.746Z,2.03
2022-12-03T05:35:58.322Z,2.04
2022-12-03T05:38:24.861Z,1.99
2022-12-03T05:40:51.403Z,2.03
2022-12-03T05:43:17.952Z,1.98
2022-12-03T05:45:44.772Z,1.95
2022-12-03T05:48:13.732Z,1.94
2022-12-03T05:50:43.807Z,1.89
2022-12-03T05:53:14.921Z,1.88
2022-12-03T05:55:41.791Z,1.90
2022-12-03T05:58:08.683Z,1.90
2022-12-03T06:00:42.539Z,1.79
2022-12-03T06:03:09.733Z,1.85
2022-12-03T06:05:36.406Z,1.84
2022-12-03T06:08:03.042Z,1.83
2022-12-03T06:10:30.214Z,1.80
2022-12-03T06:12:56.989Z,1.69
2022-12-03T06:15:23.585Z,1.64
2022-12-03T06:17:50.293Z,1.67
2022-12-03T06:20:21.283Z,1.66
2022-12-03T06:22:48.385Z,1.68
2022-12-03T06:25:15.711Z,1.59
2022-12-03T06:27:42.242Z,1.70
2022-12-03T06:30:12.766Z,1.72
2022-12-03T06:32:39.515Z,1.76
2022-12-03T06:35:06.268Z,1.65
2022-12-03T06:37:32.792Z,1.58
2022-12-03T06:39:59.608Z,1.51
2022-12-03T06:42:26.107Z,1.46
2022-12-03T06:44:52.998Z,1.33
2022-12-03T06:47:19.888Z,1.49
2022-12-03T06:49:46.379Z,1.43
2022-12-03T06:52:12.858Z,1.58
2022-12-03T06:54:39.446Z,1.61
2022-12-03T06:57:05.982Z,1.63
2022-12-03T06:59:34.155Z,1.38
2022-12-03T07:02:01.099Z,1.65
2022-12-03T07:04:27.707Z,1.65
2022-12-03T07:06:54.619Z,1.62
2022-12-03T07:09:21.185Z,1.55
2022-12-03T07:11:47.745Z,1.64
2022-12-03T07:14:14.404Z,1.61
2022-12-03T07:16:43.277Z,1.58
2022-12-03T07:19:10.620Z,1.62
2022-12-03T07:21:37.949Z,1.62
2022-12-03T07:24:04.855Z,1.68
2022-12-03T07:26:31.609Z,1.66
2022-12-03T07:28:58.776Z,1.72
2022-12-03T07:31:25.637Z,1.71
2022-12-03T07:33:52.248Z,1.78
2022-12-03T07:36:18.756Z,1.72
2022-12-03T07:38:45.311Z,1.50
2022-12-03T07:41:12.407Z,1.51
2022-12-03T07:43:38.920Z,1.69
2022-12-03T07:46:05.658Z,1.76
2022-12-03T07:48:32.236Z,1.80
2022-12-03T07:50:58.795Z,1.85
2022-12-03T07:53:25.351Z,1.77
2022-12-03T07:55:51.931Z,1.87
2022-12-03T07:58:18.549Z,1.75
2022-12-03T08:00:45.121Z,1.68
2022-12-03T08:03:11.691Z,1.91
2022-12-03T08:05:38.182Z,1.75
2022-12-03T08:08:04.853Z,1.83
2022-12-03T08:10:31.393Z,1.94
2022-12-03T08:12:59.567Z,1.91
2022-12-03T08:15:31.143Z,1.96
2022-12-03T08:18:12.016Z,1.88
2022-12-03T08:20:40.669Z,1.91
2022-12-03T08:23:13.306Z,1.70
2022-12-03T08:25:39.987Z,1.84
2022-12-03T08:28:21.222Z,1.94
2022-12-03T08:31:00.117Z,1.90
2022-12-03T08:33:35.990Z,1.95
2022-12-03T08:36:11.026Z,1.85
2022-12-03T08:38:37.572Z,1.75
2022-12-03T08:41:13.799Z,1.88
2022-12-03T08:43:42.849Z,1.84
2022-12-03T08:46:19.202Z,1.90
2022-12-03T08:48:48.982Z,1.95
2022-12-03T08:51:20.767Z,1.99
2022-12-03T08:53:56.658Z,1.97
2022-12-03T08:56:29.006Z,1.87
2022-12-03T08:58:58.484Z,1.92
2022-12-03T09:01:39.265Z,1.87
2022-12-03T09:04:25.122Z,1.43
2022-12-03T09:06:53.044Z,1.79
2022-12-03T09:09:20.032Z,1.75
2022-12-03T09:11:47.075Z,1.73
2022-12-03T09:14:18.496Z,1.74
2022-12-03T09:16:45.428Z,1.84
2022-12-03T09:19:12.048Z,1.83
2022-12-03T09:21:38.545Z,1.86
2022-12-03T09:24:05.318Z,1.94
2022-12-03T09:26:31.823Z,1.98
2022-12-03T09:28:58.382Z,1.91
2022-12-03T09:31:24.942Z,2.01
2022-12-03T09:33:52.262Z,2.00
2022-12-03T09:36:18.816Z,1.92
2022-12-03T09:38:47.905Z,2.03
2022-12-03T09:41:15.023Z,2.13
2022-12-03T09:46:29.743Z,2.25
2022-12-03T09:48:57.176Z,2.26
2022-12-03T09:51:30.422Z,2.14
2022-12-03T09:53:59.696Z,2.24
2022-12-03T09:56:26.414Z,2.19
2022-12-03T09:58:52.988Z,2.07
2022-12-03T10:01:21.206Z,2.12
2022-12-03T10:03:51.684Z,2.20
2022-12-03T10:06:23.484Z,1.96
2022-12-03T10:08:54.523Z,2.34
2022-12-03T10:11:23.894Z,2.23
2022-12-03T10:13:52.527Z,2.41
2022-12-03T10:16:20.921Z,2.30
2022-12-03T10:18:51.924Z,2.49
2022-12-03T10:21:36.312Z,2.39
2022-12-03T10:24:25.764Z,2.48
2022-12-03T10:27:00.807Z,2.52
2022-12-03T10:29:33.911Z,2.45
2022-12-03T10:32:06.643Z,2.49
2022-12-03T10:34:38.386Z,2.62
2022-12-03T10:37:12.624Z,2.63
2022-12-03T10:39:59.302Z,2.62
2022-12-03T10:42:32.354Z,2.40
2022-12-03T10:45:08.385Z,2.52
2022-12-03T10:47:35.031Z,2.36
2022-12-03T10:50:04.871Z,2.09
2022-12-03T10:52:31.899Z,2.38
2022-12-03T10:54:58.912Z,2.33
2022-12-03T10:57:25.598Z,2.47
2022-12-03T10:59:52.255Z,2.28
2022-12-03T11:02:21.902Z,2.42
2022-12-03T11:04:49.380Z,2.52
2022-12-03T11:07:19.143Z,2.31
2022-12-03T11:09:48.311Z,2.18
2022-12-03T11:12:26.609Z,2.52
2022-12-03T11:14:54.348Z,2.50
2022-12-03T11:17:39.854Z,2.51
2022-12-03T11:20:13.390Z,2.47
2022-12-03T11:22:49.321Z,2.46
2022-12-03T11:25:25.498Z,2.59
2022-12-03T11:28:21.418Z,2.46
2022-12-03T11:30:51.096Z,2.53
2022-12-03T11:33:32.339Z,2.49
2022-12-03T11:36:04.608Z,2.56
2022-12-03T11:38:41.025Z,2.56
2022-12-03T11:41:15.025Z,2.47
2022-12-03T11:43:56.651Z,2.51
2022-12-03T11:46:31.062Z,2.52
2022-12-03T11:48:59.800Z,2.48
2022-12-03T11:51:29.269Z,2.43
2022-12-03T11:53:58.456Z,2.52
2022-12-03T11:56:27.582Z,2.56
2022-12-03T11:59:02.807Z,2.60
2022-12-03T12:01:39.119Z,2.64
2022-12-03T12:04:07.605Z,2.51
2022-12-03T12:06:47.439Z,2.50
2022-12-03T12:09:47.665Z,2.50
2022-12-03T12:12:19.340Z,2.38
2022-12-03T12:14:45.987Z,2.45
2022-12-03T12:17:36.295Z,2.46
2022-12-03T12:20:24.683Z,2.45
2022-12-03T12:22:53.545Z,2.32
2022-12-03T12:25:40.838Z,2.48
2022-12-03T12:28:08.164Z,2.44
2022-12-03T12:30:36.614Z,2.50
2022-12-03T12:33:26.080Z,2.51
2022-12-03T12:35:53.601Z,2.53
2022-12-03T12:38:22.567Z,2.52
2022-12-03T12:40:50.594Z,2.43
2022-12-03T12:43:26.578Z,2.33
2022-12-03T12:45:55.242Z,2.23
2022-12-03T12:48:31.739Z,2.14
2022-12-03T12:51:06.071Z,2.16
2022-12-03T12:53:35.230Z,2.23
2022-12-03T12:56:22.071Z,2.32
2022-12-03T12:58:48.891Z,2.36
2022-12-03T13:01:20.986Z,2.35
2022-12-03T13:03:50.453Z,2.22
2022-12-03T13:06:19.685Z,2.32
2022-12-03T13:08:49.056Z,2.43
2022-12-03T13:11:38.649Z,2.37
2022-12-03T13:14:22.130Z,2.32
2022-12-03T13:16:50.718Z,2.19
2022-12-03T13:19:28.504Z,2.27
2022-12-03T13:22:03.321Z,1.96
2022-12-03T13:24:40.556Z,2.27
2022-12-03T13:27:23.005Z,2.28
2022-12-03T13:29:55.334Z,2.27
2022-12-03T13:32:35.988Z,2.25
2022-12-03T13:35:39.762Z,2.19
2022-12-03T13:38:15.293Z,2.06
2022-12-03T13:40:42.093Z,2.10
2022-12-03T13:43:17.860Z,2.09
2022-12-03T13:45:46.505Z,2.11
2022-12-03T13:48:31.903Z,2.08
2022-12-03T13:51:10.963Z,2.11
2022-12-03T13:53:38.772Z,2.08
2022-12-03T13:56:27.803Z,2.16
2022-12-03T13:58:55.699Z,2.10
2022-12-03T14:01:23.044Z,2.14
2022-12-03T14:03:50.086Z,2.11
2022-12-03T14:06:17.820Z,2.05
2022-12-03T14:08:44.712Z,2.07
2022-12-03T14:11:34.512Z,2.07
2022-12-03T14:14:01.166Z,2.10
2022-12-03T14:16:27.857Z,2.05
2022-12-03T14:18:54.442Z,1.95
2022-12-03T14:21:20.972Z,2.09
2022-12-03T14:23:47.536Z,2.07
2022-12-03T14:26:14.042Z,1.98
2022-12-03T14:28:46.495Z,1.92
2022-12-03T14:31:13.291Z,1.87
2022-12-03T14:33:39.941Z,1.71
2022-12-03T14:36:06.747Z,1.86
2022-12-03T14:38:33.279Z,1.88
2022-12-03T14:40:59.839Z,1.85
2022-12-03T14:43:26.371Z,1.79
2022-12-03T14:45:52.991Z,1.91
2022-12-03T14:48:20.695Z,1.80
2022-12-03T14:50:47.217Z,1.85
2022-12-03T14:53:13.710Z,1.93
2022-12-03T14:55:40.267Z,1.91
2022-12-03T14:58:06.752Z,1.91
2022-12-03T15:00:33.235Z,1.88
2022-12-03T15:02:59.883Z,2.00
2022-12-03T15:05:28.782Z,2.00
2022-12-03T15:07:55.886Z,2.10
2022-12-03T15:10:22.520Z,2.08
2022-12-03T15:12:48.997Z,2.11
2022-12-03T15:15:15.551Z,2.06
2022-12-03T15:17:45.617Z,2.05
2022-12-03T15:20:12.780Z,2.09
2022-12-03T15:22:39.284Z,2.03
2022-12-03T15:25:07.592Z,2.02
2022-12-03T15:27:34.128Z,1.79
2022-12-03T15:30:00.723Z,1.97
2022-12-03T15:32:27.281Z,1.90
2022-12-03T15:34:53.891Z,1.79
2022-12-03T15:37:20.460Z,1.73
2022-12-03T15:39:48.884Z,1.38
2022-12-03T15:42:15.601Z,1.45
2022-12-03T15:44:42.152Z,1.77
2022-12-03T15:47:08.694Z,1.83
2022-12-03T15:49:35.243Z,1.87
2022-12-03T15:52:01.752Z,1.78
2022-12-03T15:54:28.278Z,1.76
2022-12-03T15:56:57.492Z,1.91
2022-12-03T15:59:24.794Z,1.86
2022-12-03T16:01:51.478Z,1.78
2022-12-03T16:04:18.038Z,1.68
2022-12-03T16:06:44.556Z,1.65
2022-12-03T16:09:11.101Z,1.55
2022-12-03T16:11:37.635Z,1.67
2022-12-03T16:14:04.157Z,1.65
2022-12-03T16:16:30.691Z,1.60
2022-12-03T16:18:57.245Z,1.70
2022-12-03T16:21:27.057Z,1.75
2022-12-03T16:23:54.591Z,1.64
2022-12-03T16:26:21.935Z,1.65
2022-12-03T16:28:48.569Z,1.48
2022-12-03T16:31:15.121Z,1.60
2022-12-03T16:33:41.683Z,1.74
2022-12-03T16:36:08.525Z,1.64
2022-12-03T16:38:35.058Z,1.62
2022-12-03T16:41:02.159Z,1.68
2022-12-03T16:43:28.771Z,1.59
2022-12-03T16:46:13.950Z,1.63
2022-12-03T16:48:41.311Z,1.59
2022-12-03T16:51:07.943Z,1.50
2022-12-03T16:53:34.482Z,1.51
2022-12-03T16:56:01.666Z,1.58
2022-12-03T16:58:28.436Z,1.18
2022-12-03T17:00:54.950Z,1.19
2022-12-03T17:03:22.626Z,1.59
2022-12-03T17:05:49.295Z,1.44
2022-12-03T17:08:16.851Z,1.55
2022-12-03T17:10:44.427Z,1.58
2022-12-03T17:13:11.246Z,1.55
2022-12-03T17:15:38.394Z,1.54
2022-12-03T17:18:05.421Z,1.49
2022-12-03T17:20:33.589Z,1.24
2022-12-03T17:23:00.683Z,1.65
2022-12-03T17:25:27.821Z,1.55
2022-12-03T17:27:54.453Z,1.63
2022-12-03T17:30:21.346Z,1.65
2022-12-03T17:32:50.262Z,1.66
2022-12-03T17:35:17.273Z,1.61
2022-12-03T17:37:43.850Z,1.56
2022-12-03T17:40:12.436Z,1.58
2022-12-03T17:42:39.009Z,1.49
2022-12-03T17:45:06.454Z,1.62
2022-12-03T17:47:33.000Z,1.68
2022-12-03T17:49:59.691Z,1.60
2022-12-03T17:52:26.324Z,1.77
2022-12-03T17:55:10.977Z,1.76
2022-12-03T17:57:39.546Z,1.60
2022-12-03T18:00:06.905Z,1.50
2022-12-03T18:02:38.891Z,1.60
2022-12-03T18:05:05.799Z,1.65
2022-12-03T18:07:32.397Z,1.24
2022-12-03T18:09:59.076Z,1.60
2022-12-03T18:12:26.082Z,1.36
2022-12-03T18:14:52.583Z,1.51
2022-12-03T18:17:19.120Z,1.52
2022-12-03T18:19:45.696Z,1.53
2022-12-03T18:22:12.917Z,1.48
2022-12-03T18:24:39.768Z,1.48
2022-12-03T18:27:06.402Z,1.49
2022-12-03T18:29:32.935Z,1.50
2022-12-03T18:31:59.618Z,1.51
2022-12-03T18:34:26.229Z,1.44
2022-12-03T18:36:52.818Z,1.49
2022-12-03T18:39:28.788Z,1.35
2022-12-03T18:41:55.364Z,1.47
2022-12-03T18:44:22.051Z,1.50
2022-12-03T18:46:55.894Z,1.53
2022-12-03T18:49:22.746Z,1.52
2022-12-03T18:51:53.283Z,1.70
2022-12-03T18:54:24.793Z,1.72
2022-12-03T18:56:51.271Z,1.71
2022-12-03T18:59:17.795Z,1.73
2022-12-03T19:01:44.984Z,1.64
2022-12-03T19:04:11.665Z,1.59
2022-12-03T19:06:38.224Z,1.54
2022-12-03T19:09:04.922Z,1.21
2022-12-03T19:11:31.526Z,1.62
2022-12-03T19:13:59.096Z,1.46
2022-12-03T19:16:26.196Z,1.49
2022-12-03T19:18:53.878Z,1.14
2022-12-03T19:21:20.601Z,1.39
2022-12-03T19:24:16.424Z,1.39
2022-12-03T19:26:34.155Z,1.29
2022-12-03T19:29:00.820Z,1.28
2022-12-03T19:31:28.957Z,1.30
2022-12-03T19:33:55.473Z,1.27
2022-12-03T19:36:24.686Z,1.27
2022-12-03T19:38:56.935Z,1.28
2022-12-03T19:41:27.390Z,1.42
2022-12-03T19:43:55.919Z,1.41
2022-12-03T19:46:24.636Z,1.46
2022-12-03T19:48:51.736Z,1.50
2022-12-03T19:51:34.189Z,1.18
2022-12-03T19:54:01.907Z,1.50
2022-12-03T19:56:30.247Z,1.47
2022-12-03T19:58:57.540Z,1.58
2022-12-03T20:01:28.754Z,1.60
2022-12-03T20:03:57.371Z,1.05
2022-12-03T20:06:27.114Z,1.54
2022-12-03T20:08:56.486Z,1.23
2022-12-03T20:11:25.735Z,1.46
2022-12-03T20:13:55.004Z,1.48
2022-12-03T20:16:22.125Z,1.29
2022-12-03T20:18:49.652Z,1.39
2022-12-03T20:21:18.365Z,1.34
2022-12-03T20:23:45.935Z,1.33
2022-12-03T20:26:15.769Z,1.37
2022-12-03T20:28:43.232Z,1.36
2022-12-03T20:31:13.497Z,1.30
2022-12-03T20:33:42.407Z,1.40
2022-12-03T20:36:10.327Z,1.36
2022-12-03T20:38:37.164Z,1.35
2022-12-03T20:41:05.764Z,1.31
2022-12-03T20:43:32.921Z,1.36
2022-12-03T20:46:10.577Z,1.39
2022-12-03T20:48:37.727Z,1.45
2022-12-03T20:51:10.307Z,0.98
2022-12-03T20:53:37.603Z,1.34
2022-12-03T20:56:04.887Z,1.37
2022-12-03T20:58:32.002Z,1.29
2022-12-03T21:01:19.862Z,1.39
2022-12-03T21:03:47.355Z,1.22
2022-12-03T21:06:15.095Z,1.33
2022-12-03T21:08:43.066Z,1.30
2022-12-03T21:11:13.074Z,1.29
2022-12-03T21:13:43.951Z,1.23
2022-12-03T21:16:29.837Z,1.27
2022-12-03T21:19:01.028Z,1.40
2022-12-03T21:21:28.215Z,1.34
2022-12-03T21:23:54.832Z,1.40
2022-12-03T21:26:22.537Z,1.44
2022-12-03T21:28:51.926Z,1.40
2022-12-03T21:31:22.021Z,1.44
2022-12-03T21:33:48.980Z,1.52
2022-12-03T21:36:16.874Z,1.48
2022-12-03T21:38:44.787Z,1.59
2022-12-03T21:41:12.743Z,1.62
2022-12-03T21:43:39.290Z,1.52
2022-12-03T21:47:08.299Z,1.65
2022-12-03T21:48:53.964Z,1.68
2022-12-03T21:51:20.510Z,1.62
2022-12-03T21:53:47.086Z,1.69
2022-12-03T21:56:17.103Z,1.69
2022-12-03T21:58:44.573Z,1.78
2022-12-03T22:01:20.724Z,1.73
2022-12-03T22:03:47.821Z,1.84
2022-12-03T22:06:15.249Z,1.80
2022-12-03T22:08:42.079Z,1.77
2022-12-03T22:11:11.646Z,1.71
2022-12-03T22:13:39.033Z,1.68
2022-12-03T22:16:07.749Z,1.62
2022-12-03T22:18:34.398Z,1.59
2022-12-03T22:21:12.128Z,1.49
2022-12-03T22:23:39.185Z,1.50
2022-12-03T22:26:08.623Z,1.50
2022-12-03T22:28:35.329Z,1.51
2022-12-03T22:31:06.639Z,1.50
2022-12-03T22:33:33.482Z,1.42
2022-12-03T22:36:03.037Z,1.45
2022-12-03T22:38:30.738Z,1.03
2022-12-03T22:40:57.493Z,1.34
2022-12-03T22:43:24.182Z,1.35
2022-12-03T22:45:55.197Z,1.38
2022-12-03T22:48:23.292Z,1.28
2022-12-03T22:50:51.720Z,1.22
2022-12-03T22:53:18.847Z,1.21
2022-12-03T22:55:53.396Z,1.40
2022-12-03T22:58:20.039Z,1.50
2022-12-03T23:00:46.577Z,1.53
2022-12-03T23:03:13.235Z,1.54
2022-12-03T23:05:39.899Z,1.58
2022-12-03T23:08:08.726Z,1.19
2022-12-03T23:10:38.109Z,1.53
2022-12-03T23:13:05.533Z,1.47
2022-12-03T23:15:32.880Z,1.50
2022-12-03T23:18:00.144Z,1.49
2022-12-03T23:20:27.961Z,1.51
2022-12-03T23:22:55.045Z,1.55
2022-12-03T23:25:22.549Z,1.58
2022-12-03T23:27:49.230Z,1.54
2022-12-03T23:30:16.729Z,1.60
2022-12-03T23:32:44.405Z,1.57
2022-12-03T23:35:12.169Z,1.56
2022-12-03T23:37:39.212Z,1.55
2022-12-03T23:40:06.577Z,1.58
2022-12-03T23:42:33.066Z,1.61
2022-12-03T23:45:00.008Z,1.54
2022-12-03T23:47:28.273Z,1.61
2022-12-03T23:49:55.155Z,1.63
2022-12-03T23:52:21.913Z,1.64
2022-12-03T23:54:48.457Z,1.54
2022-12-03T23:57:16.127Z,1.62
2022-12-03T23:59:43.346Z,1.70
